Cmb Ariane — VRIT7 — position and weather

sailwx.info

Track history (hours):
 
Tides and Currents Weather Stations Pressure Air Temp Water Temp Dewpoint Dewpoint Depression Visibility Wind Speed Wind Dir Waves Ship Positions

Cmb Ariane

Last reported at 2016-Nov-30 12:04 UTC. Time now 2016-Dec-02 22:19 UTC.
Position N 46°04' W 001°55'.

Length 180 m; draft 9.6 m.

Type: Cargo ship. MMSI: 477229600.

Date/timePositionNaut miles runAvg speedWind from/ knotsBaromVisibWave heightAir tempDewpointWater temp
2016-Nov-30 12:04N 46°04' W 001°55'612.1
2016-Nov-30 11:33N 46°07' W 001°46'1211.7
2016-Nov-30 10:32N 46°07' W 001°29'10 9.8
2016-Nov-30 09:33N 46°08' W 001°15'2 1.9
2016-Nov-30 08:33N 46°10' W 001°14'0 0.0
2016-Nov-30 07:33N 46°09' W 001°14'0 0.0
2016-Nov-30 06:33N 46°10' W 001°14'0 0.0
2016-Nov-30 05:33N 46°09' W 001°14'0 0.0
2016-Nov-30 04:30N 46°10' W 001°14'0 0.0
2016-Nov-30 03:27N 46°09' W 001°14'0 0.0
2016-Nov-30 02:30N 46°10' W 001°14'0 0.0
2016-Nov-30 01:33N 46°10' W 001°14'0 0.0
2016-Nov-30 00:33N 46°09' W 001°14'0 0.0
2016-Nov-29 23:33N 46°09' W 001°14'0 0.0
2016-Nov-29 22:33N 46°09' W 001°14'0 0.0
2016-Nov-29 21:33N 46°09' W 001°14'0 0.0
2016-Nov-29 20:33N 46°09' W 001°14'0 0.0
2016-Nov-29 19:33N 46°10' W 001°14'0 0.0
2016-Nov-29 18:33N 46°09' W 001°14'0 0.0
2016-Nov-29 17:33N 46°09' W 001°14'0 0.0
2016-Nov-29 16:33N 46°09' W 001°14'0 0.0
2016-Nov-29 15:33N 46°09' W 001°14'0 0.0
2016-Nov-29 14:33N 46°09' W 001°14'0 0.0
2016-Nov-29 13:33N 46°10' W 001°14'0 0.0
2016-Nov-29 12:33N 46°09' W 001°14'0 0.0
2016-Nov-29 11:33N 46°09' W 001°14'0 0.0
2016-Nov-29 10:33N 46°09' W 001°14'0 0.0
2016-Nov-29 09:33N 46°10' W 001°14'0 0.0
2016-Nov-29 08:33N 46°09' W 001°14'0 0.0
2016-Nov-29 07:33N 46°09' W 001°14'0 0.0
2016-Nov-29 06:33N 46°09' W 001°14'0 0.0
2016-Nov-29 05:33N 46°09' W 001°14'0 0.0
2016-Nov-29 04:33N 46°10' W 001°14'0 0.0
2016-Nov-29 03:33N 46°09' W 001°14'0 0.0
2016-Nov-29 02:33N 46°09' W 001°14'0 0.0
2016-Nov-29 01:33N 46°09' W 001°14'0 0.0
2016-Nov-29 00:33N 46°09' W 001°14'0 0.0
2016-Nov-28 23:33N 46°09' W 001°14'0 0.0
2016-Nov-28 22:33N 46°09' W 001°14'0 0.0
2016-Nov-28 21:33N 46°10' W 001°14'0 0.0
2016-Nov-28 20:33N 46°10' W 001°14'0 0.0
2016-Nov-28 19:33N 46°10' W 001°14'0 0.0
2016-Nov-28 18:33N 46°09' W 001°14'0 0.0
2016-Nov-28 17:33N 46°09' W 001°14'0 0.0
2016-Nov-28 16:33N 46°10' W 001°14'0 0.0
2016-Nov-28 15:27N 46°09' W 001°14'0 0.0
2016-Nov-28 14:33N 46°09' W 001°14'0 0.0
2016-Nov-28 13:33N 46°10' W 001°14'0 0.0
2016-Nov-28 12:33N 46°09' W 001°14'0 0.0
2016-Nov-28 11:33N 46°09' W 001°14'0 0.0
2016-Nov-28 10:33N 46°09' W 001°14'0 0.0
2016-Nov-28 09:33N 46°10' W 001°14'0 0.0
2016-Nov-28 08:33N 46°09' W 001°14'0 0.0
2016-Nov-28 07:33N 46°09' W 001°14'0 0.0
2016-Nov-28 06:33N 46°09' W 001°14'0 0.0
2016-Nov-28 05:33N 46°09' W 001°14'0 0.0
2016-Nov-28 04:33N 46°10' W 001°14'0 0.0
2016-Nov-28 03:33N 46°09' W 001°14'0 0.0
2016-Nov-28 02:33N 46°09' W 001°14'0 0.0
2016-Nov-28 01:33N 46°10' W 001°14'0 0.0
2016-Nov-28 00:33N 46°09' W 001°14'0 0.0
2016-Nov-27 23:33N 46°09' W 001°14'0 0.0
2016-Nov-27 22:33N 46°10' W 001°14'0 0.0
2016-Nov-27 21:33N 46°09' W 001°14'0 0.0
2016-Nov-27 20:33N 46°09' W 001°14'0 0.0
2016-Nov-27 19:33N 46°09' W 001°14'0 0.0
2016-Nov-27 18:33N 46°09' W 001°14'0 0.0
2016-Nov-27 17:33N 46°10' W 001°14'0 0.0
2016-Nov-27 16:33N 46°10' W 001°14'0 0.0
2016-Nov-27 15:33N 46°09' W 001°14'0 0.0
2016-Nov-27 14:33N 46°10' W 001°14'0 0.0
2016-Nov-27 13:33N 46°10' W 001°14'3 2.9
2016-Nov-27 12:33N 46°07' W 001°15'6 5.5
2016-Nov-27 11:33N 46°06' W 001°23'9 8.5
2016-Nov-27 10:33N 46°08' W 001°36'6 6.3
2016-Nov-27 09:33N 46°07' W 001°45'1111.0
2016-Nov-27 08:32N 46°03' W 001°60'53110.6
2016-Nov-25 06:25N 39°23' W 009°54'6 7.5
2016-Nov-25 05:33N 39°16' W 009°54'7 7.1
2016-Nov-25 04:33N 39°09' W 009°53'8 7.5
2016-Nov-25 03:33N 39°01' W 009°53'8 7.9
2016-Nov-25 02:34N 38°54' W 009°52'8 7.7
2016-Nov-25 01:34N 38°46' W 009°50'1010.3
2016-Nov-25 00:33N 38°36' W 009°48'1211.7
2016-Nov-24 23:34N 38°24' W 009°45'1312.5
2016-Nov-24 22:33N 38°12' W 009°42'1312.8
2016-Nov-24 21:33N 37°60' W 009°38'1312.8
2016-Nov-24 20:33N 37°47' W 009°35'  
Track history (hours):
 
Tides and Currents Weather Stations Pressure Air Temp Water Temp Dewpoint Dewpoint Depression Visibility Wind Speed Wind Dir Waves Ship Positions

Cmb Ariane

Last reported at 2016-Nov-30 12:04 UTC. Time now 2016-Dec-02 22:19 UTC.
Position N 46°04' W 001°55'.

Length 180 m; draft 9.6 m.

Type: Cargo ship. MMSI: 477229600.

Date/timePositionNaut miles runAvg speedWind from/ knotsBaromVisibWave heightAir tempDewpointWater temp
2016-Nov-30 12:04N 46°04' W 001°55'612.1
2016-Nov-30 11:33N 46°07' W 001°46'1211.7
2016-Nov-30 10:32N 46°07' W 001°29'10 9.8
2016-Nov-30 09:33N 46°08' W 001°15'2 1.9
2016-Nov-30 08:33N 46°10' W 001°14'0 0.0
2016-Nov-30 07:33N 46°09' W 001°14'0 0.0
2016-Nov-30 06:33N 46°10' W 001°14'0 0.0
2016-Nov-30 05:33N 46°09' W 001°14'0 0.0
2016-Nov-30 04:30N 46°10' W 001°14'0 0.0
2016-Nov-30 03:27N 46°09' W 001°14'0 0.0
2016-Nov-30 02:30N 46°10' W 001°14'0 0.0
2016-Nov-30 01:33N 46°10' W 001°14'0 0.0
2016-Nov-30 00:33N 46°09' W 001°14'0 0.0
2016-Nov-29 23:33N 46°09' W 001°14'0 0.0
2016-Nov-29 22:33N 46°09' W 001°14'0 0.0
2016-Nov-29 21:33N 46°09' W 001°14'0 0.0
2016-Nov-29 20:33N 46°09' W 001°14'0 0.0
2016-Nov-29 19:33N 46°10' W 001°14'0 0.0
2016-Nov-29 18:33N 46°09' W 001°14'0 0.0
2016-Nov-29 17:33N 46°09' W 001°14'0 0.0
2016-Nov-29 16:33N 46°09' W 001°14'0 0.0
2016-Nov-29 15:33N 46°09' W 001°14'0 0.0
2016-Nov-29 14:33N 46°09' W 001°14'0 0.0
2016-Nov-29 13:33N 46°10' W 001°14'0 0.0
2016-Nov-29 12:33N 46°09' W 001°14'0 0.0
2016-Nov-29 11:33N 46°09' W 001°14'0 0.0
2016-Nov-29 10:33N 46°09' W 001°14'0 0.0
2016-Nov-29 09:33N 46°10' W 001°14'0 0.0
2016-Nov-29 08:33N 46°09' W 001°14'0 0.0
2016-Nov-29 07:33N 46°09' W 001°14'0 0.0
2016-Nov-29 06:33N 46°09' W 001°14'0 0.0
2016-Nov-29 05:33N 46°09' W 001°14'0 0.0
2016-Nov-29 04:33N 46°10' W 001°14'0 0.0
2016-Nov-29 03:33N 46°09' W 001°14'0 0.0
2016-Nov-29 02:33N 46°09' W 001°14'0 0.0
2016-Nov-29 01:33N 46°09' W 001°14'0 0.0
2016-Nov-29 00:33N 46°09' W 001°14'0 0.0
2016-Nov-28 23:33N 46°09' W 001°14'0 0.0
2016-Nov-28 22:33N 46°09' W 001°14'0 0.0
2016-Nov-28 21:33N 46°10' W 001°14'0 0.0
2016-Nov-28 20:33N 46°10' W 001°14'0 0.0
2016-Nov-28 19:33N 46°10' W 001°14'0 0.0
2016-Nov-28 18:33N 46°09' W 001°14'0 0.0
2016-Nov-28 17:33N 46°09' W 001°14'0 0.0
2016-Nov-28 16:33N 46°10' W 001°14'0 0.0
2016-Nov-28 15:27N 46°09' W 001°14'0 0.0
2016-Nov-28 14:33N 46°09' W 001°14'0 0.0
2016-Nov-28 13:33N 46°10' W 001°14'0 0.0
2016-Nov-28 12:33N 46°09' W 001°14'0 0.0
2016-Nov-28 11:33N 46°09' W 001°14'0 0.0
2016-Nov-28 10:33N 46°09' W 001°14'0 0.0
2016-Nov-28 09:33N 46°10' W 001°14'0 0.0
2016-Nov-28 08:33N 46°09' W 001°14'0 0.0
2016-Nov-28 07:33N 46°09' W 001°14'0 0.0
2016-Nov-28 06:33N 46°09' W 001°14'0 0.0
2016-Nov-28 05:33N 46°09' W 001°14'0 0.0
2016-Nov-28 04:33N 46°10' W 001°14'0 0.0
2016-Nov-28 03:33N 46°09' W 001°14'0 0.0
2016-Nov-28 02:33N 46°09' W 001°14'0 0.0
2016-Nov-28 01:33N 46°10' W 001°14'0 0.0
2016-Nov-28 00:33N 46°09' W 001°14'0 0.0
2016-Nov-27 23:33N 46°09' W 001°14'0 0.0
2016-Nov-27 22:33N 46°10' W 001°14'0 0.0
2016-Nov-27 21:33N 46°09' W 001°14'0 0.0
2016-Nov-27 20:33N 46°09' W 001°14'0 0.0
2016-Nov-27 19:33N 46°09' W 001°14'0 0.0
2016-Nov-27 18:33N 46°09' W 001°14'0 0.0
2016-Nov-27 17:33N 46°10' W 001°14'0 0.0
2016-Nov-27 16:33N 46°10' W 001°14'0 0.0
2016-Nov-27 15:33N 46°09' W 001°14'0 0.0
2016-Nov-27 14:33N 46°10' W 001°14'0 0.0
2016-Nov-27 13:33N 46°10' W 001°14'3 2.9
2016-Nov-27 12:33N 46°07' W 001°15'6 5.5
2016-Nov-27 11:33N 46°06' W 001°23'9 8.5
2016-Nov-27 10:33N 46°08' W 001°36'6 6.3
2016-Nov-27 09:33N 46°07' W 001°45'1111.0
2016-Nov-27 08:32N 46°03' W 001°60'53110.6
2016-Nov-25 06:25N 39°23' W 009°54'6 7.5
2016-Nov-25 05:33N 39°16' W 009°54'7 7.1
2016-Nov-25 04:33N 39°09' W 009°53'8 7.5
2016-Nov-25 03:33N 39°01' W 009°53'8 7.9
2016-Nov-25 02:34N 38°54' W 009°52'8 7.7
2016-Nov-25 01:34N 38°46' W 009°50'1010.3
2016-Nov-25 00:33N 38°36' W 009°48'1211.7
2016-Nov-24 23:34N 38°24' W 009°45'1312.5
2016-Nov-24 22:33N 38°12' W 009°42'1312.8
2016-Nov-24 21:33N 37°60' W 009°38'1312.8
2016-Nov-24 20:33N 37°47' W 009°35'  

Dump ship's entire track history